createdAt,value
2019-03-10T00:01:38.009Z,14.20
2019-03-10T00:04:16.300Z,18.05
2019-03-10T00:06:54.228Z,11.48
2019-03-10T00:09:34.153Z,13.03
2019-03-10T00:12:13.048Z,13.28
2019-03-10T00:14:50.943Z,11.65
2019-03-10T00:17:29.176Z,11.05
2019-03-10T00:20:07.846Z,13.25
2019-03-10T00:22:46.720Z,10.58
2019-03-10T00:25:24.294Z,14.78
2019-03-10T00:28:12.674Z,12.43
2019-03-10T00:30:53.917Z,12.25
2019-03-10T00:33:35.317Z,11.38
2019-03-10T00:36:15.689Z,10.50
2019-03-10T00:39:27.996Z,10.10
2019-03-10T00:42:55.377Z,10.10
2019-03-10T00:46:10.260Z,10.15
2019-03-10T00:49:44.551Z,11.85
2019-03-10T00:52:31.602Z,11.63
2019-03-10T00:55:09.559Z,8.88
2019-03-10T00:57:47.336Z,9.90
2019-03-10T01:00:27.683Z,9.60
2019-03-10T01:03:07.873Z,9.73
2019-03-10T01:05:47.194Z,10.90
2019-03-10T01:08:35.332Z,8.80
2019-03-10T01:11:15.083Z,8.88
2019-03-10T01:13:58.792Z,9.38
2019-03-10T01:16:42.309Z,8.33
2019-03-10T01:19:23.742Z,8.28
2019-03-10T01:22:02.556Z,8.85
2019-03-10T01:24:41.094Z,7.78
2019-03-10T01:27:19.381Z,8.55
2019-03-10T01:29:58.426Z,8.45
2019-03-10T01:33:18.945Z,8.38
2019-03-10T01:35:57.329Z,10.05
2019-03-10T01:38:38.852Z,9.50
2019-03-10T01:41:17.435Z,9.88
2019-03-10T01:43:57.314Z,9.80
2019-03-10T01:46:38.853Z,9.33
2019-03-10T01:51:55.289Z,9.15
2019-03-10T01:54:36.851Z,8.90
2019-03-10T01:57:19.077Z,9.43
2019-03-10T02:02:35.968Z,9.65
2019-03-10T02:05:15.179Z,10.53
2019-03-10T02:07:57.516Z,10.45
2019-03-10T02:10:38.685Z,10.38
2019-03-10T02:13:20.096Z,10.15
2019-03-10T02:16:02.004Z,9.53
2019-03-10T02:18:40.532Z,9.65
2019-03-10T02:21:21.978Z,9.75
2019-03-10T02:24:01.637Z,8.20
2019-03-10T02:26:39.148Z,9.23
2019-03-10T02:29:17.846Z,9.95
2019-03-10T02:31:56.269Z,9.90
2019-03-10T02:34:34.564Z,9.90
2019-03-10T02:37:12.564Z,8.75
2019-03-10T02:39:51.005Z,8.98
2019-03-10T02:42:29.495Z,9.60
2019-03-10T02:45:08.183Z,10.65
2019-03-10T02:47:47.071Z,10.38
2019-03-10T02:50:25.416Z,10.10
2019-03-10T02:53:03.498Z,9.98
2019-03-10T02:55:43.020Z,10.00
2019-03-10T02:58:23.405Z,10.35
2019-03-10T03:01:01.714Z,11.03
2019-03-10T03:03:40.630Z,10.45
2019-03-10T03:06:19.058Z,9.90
2019-03-10T03:08:57.163Z,9.98
2019-03-10T03:11:34.843Z,9.35
2019-03-10T03:14:15.442Z,9.55
2019-03-10T03:16:54.625Z,10.38
2019-03-10T03:19:33.553Z,9.55
2019-03-10T03:22:11.830Z,8.70
2019-03-10T03:24:50.377Z,9.63
2019-03-10T03:27:28.635Z,9.85
2019-03-10T03:30:06.931Z,9.75
2019-03-10T03:32:46.595Z,9.40
2019-03-10T03:36:00.005Z,8.93
2019-03-10T03:38:47.437Z,8.43
2019-03-10T03:41:26.817Z,9.83
2019-03-10T03:44:07.034Z,8.60
2019-03-10T03:46:45.344Z,8.60
2019-03-10T03:49:24.817Z,8.33
2019-03-10T03:52:05.278Z,8.55
2019-03-10T03:54:45.441Z,8.63
2019-03-10T03:57:24.228Z,8.30
2019-03-10T04:00:02.926Z,8.63
2019-03-10T04:02:42.157Z,9.13
2019-03-10T04:05:22.435Z,8.90
2019-03-10T04:08:00.344Z,8.75
2019-03-10T04:10:41.364Z,8.60
2019-03-10T04:13:20.693Z,8.50
2019-03-10T04:16:00.068Z,8.05
2019-03-10T04:18:38.417Z,7.45
2019-03-10T04:21:17.370Z,7.67
2019-03-10T04:23:56.827Z,8.30
2019-03-10T04:26:35.120Z,8.18
2019-03-10T04:29:14.673Z,8.20
2019-03-10T04:31:52.733Z,8.35
2019-03-10T04:34:31.538Z,8.60
2019-03-10T04:37:10.294Z,8.40
2019-03-10T04:39:58.704Z,8.10
2019-03-10T04:42:37.493Z,8.45
2019-03-10T04:45:15.207Z,8.85
2019-03-10T04:47:53.722Z,8.20
2019-03-10T04:50:32.460Z,8.60
2019-03-10T04:53:14.879Z,7.92
2019-03-10T04:55:58.935Z,8.58
2019-03-10T04:58:40.625Z,7.97
2019-03-10T05:01:27.035Z,7.92
2019-03-10T05:04:06.797Z,8.70
2019-03-10T05:06:47.395Z,8.48
2019-03-10T05:09:27.755Z,8.93
2019-03-10T05:12:20.853Z,8.60
2019-03-10T05:14:55.031Z,7.67
2019-03-10T05:17:33.808Z,8.38
2019-03-10T05:20:14.695Z,8.20
2019-03-10T05:22:54.191Z,7.50
2019-03-10T05:25:36.287Z,7.30
2019-03-10T05:28:16.375Z,8.25
2019-03-10T05:30:55.250Z,8.30
2019-03-10T05:33:35.983Z,8.00
2019-03-10T05:36:13.937Z,8.13
2019-03-10T05:38:53.916Z,7.80
2019-03-10T05:41:32.985Z,8.23
2019-03-10T05:44:15.331Z,8.30
2019-03-10T05:46:53.381Z,8.38
2019-03-10T05:49:31.683Z,7.92
2019-03-10T05:52:10.225Z,8.80
2019-03-10T05:54:51.228Z,7.80
2019-03-10T05:57:29.278Z,8.03
2019-03-10T06:00:13.616Z,8.90
2019-03-10T06:02:56.665Z,8.35
2019-03-10T06:05:43.976Z,8.95
2019-03-10T06:16:11.294Z,8.45
2019-03-10T06:18:51.435Z,7.83
2019-03-10T06:21:34.756Z,8.83
2019-03-10T06:24:15.869Z,8.15
2019-03-10T06:27:00.945Z,7.92
2019-03-10T06:29:44.182Z,7.70
2019-03-10T06:32:23.413Z,9.10
2019-03-10T06:35:06.768Z,8.55
2019-03-10T06:37:47.150Z,8.90
2019-03-10T06:40:32.114Z,9.17
2019-03-10T06:43:08.197Z,8.60
2019-03-10T06:45:49.443Z,8.45
2019-03-10T06:48:30.159Z,8.08
2019-03-10T06:51:10.822Z,8.28
2019-03-10T06:53:53.124Z,8.00
2019-03-10T06:56:33.283Z,8.58
2019-03-10T06:59:11.681Z,8.30
2019-03-10T07:01:53.412Z,8.18
2019-03-10T07:04:43.537Z,8.15
2019-03-10T07:07:22.372Z,8.78
2019-03-10T07:10:02.339Z,8.53
2019-03-10T07:12:42.050Z,8.10
2019-03-10T07:15:26.875Z,7.70
2019-03-10T07:18:06.710Z,7.72
2019-03-10T07:20:49.028Z,8.18
2019-03-10T07:23:26.708Z,8.68
2019-03-10T07:26:11.219Z,8.50
2019-03-10T07:28:57.683Z,8.50
2019-03-10T07:31:51.244Z,8.55
2019-03-10T07:34:44.432Z,9.25
2019-03-10T07:37:52.111Z,8.83
2019-03-10T07:40:54.305Z,8.15
2019-03-10T07:43:51.496Z,8.00
2019-03-10T07:46:56.394Z,7.92
2019-03-10T07:49:53.329Z,8.65
2019-03-10T07:53:02.285Z,8.53
2019-03-10T07:56:02.704Z,7.92
2019-03-10T07:59:04.058Z,8.10
2019-03-10T08:01:56.708Z,9.13
2019-03-10T08:05:05.309Z,8.35
2019-03-10T08:08:18.390Z,8.45
2019-03-10T08:11:28.584Z,8.85
2019-03-10T08:14:31.839Z,8.10
2019-03-10T08:17:42.884Z,7.83
2019-03-10T08:20:32.357Z,9.13
2019-03-10T08:23:26.168Z,8.00
2019-03-10T08:26:21.197Z,7.35
2019-03-10T08:29:16.546Z,8.15
2019-03-10T08:32:12.573Z,8.33
2019-03-10T08:35:19.964Z,7.87
2019-03-10T08:38:20.919Z,8.90
2019-03-10T08:41:15.004Z,14.83
2019-03-10T08:44:14.029Z,8.63
2019-03-10T08:47:05.113Z,8.08
2019-03-10T08:50:07.576Z,8.40
2019-03-10T08:52:51.632Z,8.28
2019-03-10T08:55:47.344Z,8.60
2019-03-10T08:58:49.733Z,8.58
2019-03-10T09:02:02.134Z,8.03
2019-03-10T09:04:56.063Z,8.20
2019-03-10T09:07:49.669Z,8.63
2019-03-10T09:10:39.427Z,8.93
2019-03-10T09:13:55.882Z,8.93
2019-03-10T09:17:03.703Z,10.32
2019-03-10T09:21:05.157Z,8.48
2019-03-10T09:24:00.668Z,9.35
2019-03-10T09:26:51.821Z,9.53
2019-03-10T09:29:47.330Z,8.25
2019-03-10T09:36:27.575Z,8.68
2019-03-10T09:39:33.332Z,8.75
2019-03-10T09:42:40.499Z,9.43
2019-03-10T09:45:30.304Z,9.78
2019-03-10T09:48:26.828Z,8.83
2019-03-10T09:51:19.088Z,8.90
2019-03-10T09:54:25.073Z,9.10
2019-03-10T09:57:26.112Z,8.23
2019-03-10T10:00:20.545Z,9.10
2019-03-10T10:03:26.527Z,8.50
2019-03-10T10:06:33.418Z,8.58
2019-03-10T10:09:45.212Z,8.95
2019-03-10T10:12:37.791Z,8.95
2019-03-10T10:15:34.205Z,9.60
2019-03-10T10:18:33.285Z,9.18
2019-03-10T10:21:31.371Z,8.70
2019-03-10T10:24:25.648Z,8.98
2019-03-10T10:27:34.175Z,9.10
2019-03-10T10:30:26.379Z,8.95
2019-03-10T10:33:26.542Z,8.78
2019-03-10T10:36:29.099Z,8.65
2019-03-10T10:39:38.442Z,8.63
2019-03-10T10:42:50.989Z,9.00
2019-03-10T10:45:54.803Z,9.10
2019-03-10T10:48:50.793Z,9.35
2019-03-10T10:51:54.257Z,9.23
2019-03-10T10:54:48.086Z,9.13
2019-03-10T10:57:39.676Z,9.10
2019-03-10T11:00:28.026Z,8.78
2019-03-10T11:03:25.351Z,9.50
2019-03-10T11:06:12.895Z,9.40
2019-03-10T11:09:07.514Z,9.25
2019-03-10T11:12:10.081Z,10.10
2019-03-10T11:18:23.532Z,10.32
2019-03-10T11:21:22.302Z,9.83
2019-03-10T11:24:12.847Z,10.78
2019-03-10T11:27:12.976Z,12.35
2019-03-10T11:30:27.110Z,13.00
2019-03-10T11:33:19.265Z,11.97
2019-03-10T11:36:18.283Z,11.90
2019-03-10T11:39:27.214Z,11.03
2019-03-10T11:42:14.983Z,10.88
2019-03-10T11:45:19.358Z,10.65
2019-03-10T11:48:04.399Z,10.85
2019-03-10T11:51:02.857Z,11.75
2019-03-10T11:53:50.271Z,11.65
2019-03-10T11:56:42.942Z,11.85
2019-03-10T11:59:34.832Z,11.12
2019-03-10T12:02:25.445Z,11.03
2019-03-10T12:05:21.819Z,11.25
2019-03-10T12:08:08.708Z,11.70
2019-03-10T12:10:47.560Z,12.20
2019-03-10T12:13:25.844Z,12.68
2019-03-10T12:16:03.992Z,12.28
2019-03-10T12:18:44.385Z,12.10
2019-03-10T12:21:23.939Z,11.40
2019-03-10T12:24:07.308Z,11.55
2019-03-10T12:26:49.789Z,11.60
2019-03-10T12:29:28.769Z,11.20
2019-03-10T12:32:07.464Z,11.63
2019-03-10T12:34:46.830Z,11.35
2019-03-10T12:37:25.187Z,12.13
2019-03-10T12:40:03.721Z,12.15
2019-03-10T12:42:44.468Z,11.40
2019-03-10T12:45:22.649Z,11.08
2019-03-10T12:48:02.159Z,11.65
2019-03-10T12:50:40.937Z,11.75
2019-03-10T12:53:19.889Z,12.33
2019-03-10T12:56:00.157Z,13.22
2019-03-10T12:58:39.014Z,12.37
2019-03-10T13:01:18.361Z,12.30
2019-03-10T13:03:59.026Z,13.00
2019-03-10T13:06:37.656Z,12.95
2019-03-10T13:09:17.254Z,13.08
